METAR Data
IDs: Format: Raw Decoded Include TAF

Data at: 1627 UTC 21 Sep 2018

KFMY 211553Z 10006KT 10SM SCT030 BKN044 BKN055 31/23 A3006 RMK AO2 SLP180 T03060228 $
KFMY 211453Z 10006KT 10SM SCT023 BKN035 BKN046 30/24 A3006 RMK AO2 SLP179 T03000239 50004 $
KFMY 211353Z 10004KT 10SM CLR 29/24 A3007 RMK AO2 SLP186 T02890244 $
KFMY 211253Z AUTO 03006KT 10SM CLR 27/24 A3007 RMK AO2 SLP185 T02720244 $
KFMY 211153Z AUTO 00000KT 10SM CLR 25/24 A3004 RMK AO2 SLP176 T02500244 10256 20244 $
KFMY 211053Z AUTO 00000KT 10SM CLR 24/24 A3002 RMK AO2 SLP169 T02440239
KFMY 210953Z AUTO 00000KT 10SM CLR 24/24 A3000 RMK AO2 SLP162 T02440239 $
KFMY 210853Z AUTO 09003KT 10SM CLR 24/24 A3001 RMK AO2 SLP163 T02440239 56008 $
KFMY 210753Z AUTO 08005KT 10SM CLR 25/24 A3001 RMK AO2 SLP163 T02500239 $
KFMY 210653Z AUTO 09004KT 10SM CLR 25/24 A3002 RMK AO2 SLP166 T02500239 $
KFMY 210553Z AUTO 08005KT 10SM CLR 26/24 A3003 RMK AO2 SLP171 T02560239 10261 20250 58007 $
KFMY 210453Z AUTO 07004KT 10SM CLR 26/23 A3005 RMK AO2 SLP177 T02560233 403330250
KFMY 210353Z AUTO 05003KT 10SM FEW080 26/23 A3006 RMK AO2 SLP181 T02560233
KFMY 210253Z AUTO 08004KT 10SM CLR 25/23 A3005 RMK AO2 SLP179 T02500233 51020
KFMY 210153Z AUTO 10006KT 10SM CLR 25/24 A3004 RMK AO2 SLP173 T02500239
KFMY 210053Z AUTO 00000KT 10SM CLR 26/23 A3002 RMK AO2 SLP166 T02610228
KFMY 202353Z AUTO 09005KT 10SM CLR 25/23 A3000 RMK AO2 SLP159 60000 T02500233 10333 20250 50006
KFMY 202253Z AUTO 02007KT 10SM SCT055 26/23 A3001 RMK AO2 LTG DSNT NW SLP164 T02610228
KFMY 202246Z AUTO 05004KT 10SM FEW049 SCT060 26/23 A3001 RMK AO2 LTG DSNT S AND NW T02560228
KFMY 202230Z AUTO 13003KT 10SM VCTS FEW060 SCT075 25/23 A3001 RMK AO2 LTG DSNT ALQDS T02500233
KFMY 202153Z AUTO 07008KT 10SM FEW040 SCT060 BKN120 26/23 A2999 RMK AO2 LTG DSNT ALQDS RAE21B42E53 TSE00B05E24 SLP159 P0000 T02560228
KFMY 202145Z AUTO 08008KT 10SM -RA FEW040 BKN060 BKN075 26/23 A3000 RMK AO2 LTG DSNT ALQDS RAE21B42 TSE00B05E24 P0000 T02560228
KFMY 202130Z AUTO 08009G16KT 10SM VCTS FEW040 SCT060 BKN080 27/23 A2998 RMK AO2 LTG DSNT ALQDS RAE21 TSE00B05E24 P0000 T02670233
KFMY 202111Z AUTO 17012G17KT 10SM -TSRA FEW043 SCT075 BKN110 27/24 A2998 RMK AO2 LTG DSNT ALQDS TSE00B05 P0000 T02670239
KFMY 202100Z AUTO 15014G23KT 8SM VCTS -RA FEW007 SCT039 BKN060 27/23 A2997 RMK AO2 LTG DSNT N-SE TSE00 P0000 T02670233
KFMY 202053Z AUTO 13016G23KT 10SM -TSRA FEW034 BKN042 BKN060 26/22 A2998 RMK AO2 LTG DSNT N-SE RAB25 TSB18E34B42 SLP153 P0000 60000 T02610222 55001
KFMY 202048Z AUTO 12016G21KT 10SM -TSRA BKN037 BKN060 27/22 A2997 RMK AO2 LTG DSNT NE-SE RAB25 TSB18E34B42 P0000
KFMY 202039Z AUTO 13010G17KT 10SM -RA BKN035 BKN055 27/23 A2997 RMK AO2 LTG DSNT N-SE RAB25 TSB18E34 P0000 T02720233
KFMY 202024Z AUTO 26004KT 10SM TS FEW039 31/24 A2997 RMK AO2 LTG DSNT E AND SE TSB18 T03110239
KFMY 202000Z AUTO 25008G16KT 10SM VCTS CLR 33/24 A2996 RMK AO2 LTG DSNT SE T03280239
KFMY 201953Z AUTO 27011G15KT 10SM CLR 33/24 A2997 RMK AO2 LTG DSNT SE SLP149 T03280239
KFMY 201853Z 27011KT 10SM SCT055 32/24 A2998 RMK AO2 WSHFT 1838 RAB1758E14 SLP154 P0000 T03220239
KFMY 201837Z 22008KT 10SM VCTS FEW055 33/24 A2999 RMK AO2 LTG DSNT NW RAB1758E14 P0000 T03280244
KFMY 201753Z 20006KT 10SM BKN049 OVC080 32/22 A3001 RMK AO2 SLP164 T03170222 10333 20261 56013
KFMY 201751Z 21005KT 10SM BKN049 BKN070 OVC080 32/22 A3001 RMK AO2
KFMY 201736Z 26007KT 10SM VCTS BKN046 BKN065 OVC080 32/22 A3002 RMK AO2 T03170217
KFMY 201653Z VRB04KT 10SM SCT042 33/23 A3003 RMK AO2 SLP171 T03280228
KFMY 201553Z 03005KT 10SM SCT035 SCT070 32/23 A3005 RMK AO2 SLP178 T03170233
KFMY 201453Z 31005KT 10SM CLR 32/24 A3005 RMK AO2 SLP177 T03170239 53016
KFMY 201353Z VRB03KT 10SM CLR 30/24 A3003 RMK AO2 SLP170 T03000244 $
KFMY 201253Z 00000KT 10SM CLR 28/25 A3002 RMK AO2 SLP166 T02830250 $
KFMY 201153Z 15003KT 10SM FEW019 26/25 A3000 RMK AO2 SLP161 T02610250 10267 20250 53016 $
KFMY 201053Z 11003KT 10SM CLR 26/24 A2999 RMK AO2 SLP156 T02560244 $
KFMY 200953Z AUTO 00000KT 10SM CLR 26/24 A2996 RMK AO2 SLP149 T02610244 $
KFMY 200853Z AUTO 00000KT 10SM CLR 26/24 A2995 RMK AO2 SLP145 T02610244 55007 $
KFMY 200753Z AUTO 00000KT 10SM CLR 27/25 A2995 RMK AO2 SLP143 T02670250 $
KFMY 200653Z AUTO 20004KT 10SM CLR 26/24 A2997 RMK AO2 SLP151 T02610244 $
KFMY 200553Z AUTO 18003KT 10SM CLR 26/24 A2998 RMK AO2 SLP152 60000 T02560244 10300 20256 50000 $
KFMY 200453Z AUTO 13003KT 10SM CLR 26/25 A2999 RMK AO2 SLP158 T02610250 403440244 $